createdAt,value
2022-11-16T00:01:02.918Z,79.15
2022-11-16T00:03:33.874Z,79.46
2022-11-16T00:06:03.895Z,79.89
2022-11-16T00:08:33.922Z,79.56
2022-11-16T00:11:06.629Z,79.35
2022-11-16T00:13:34.609Z,79.85
2022-11-16T00:16:03.650Z,79.80
2022-11-16T00:18:34.263Z,79.88
2022-11-16T00:21:05.506Z,79.85
2022-11-16T00:23:36.346Z,79.88
2022-11-16T00:26:06.134Z,80.31
2022-11-16T00:28:35.524Z,81.49
2022-11-16T00:31:05.788Z,81.31
2022-11-16T00:33:36.132Z,81.40
2022-11-16T00:36:06.677Z,81.50
2022-11-16T00:38:35.731Z,81.75
2022-11-16T00:41:04.308Z,82.18
2022-11-16T00:43:33.171Z,82.41
2022-11-16T00:46:01.407Z,81.88
2022-11-16T00:48:29.740Z,81.71
2022-11-16T00:50:59.397Z,81.28
2022-11-16T00:53:27.708Z,81.22
2022-11-16T00:55:56.134Z,81.18
2022-11-16T00:58:25.542Z,81.62
2022-11-16T01:01:06.088Z,81.79
2022-11-16T01:03:34.353Z,81.97
2022-11-16T01:06:08.347Z,82.47
2022-11-16T01:08:39.427Z,82.68
2022-11-16T01:11:26.366Z,82.29
2022-11-16T01:13:55.116Z,82.15
2022-11-16T01:16:24.825Z,81.33
2022-11-16T01:18:55.364Z,80.35
2022-11-16T01:21:25.752Z,80.10
2022-11-16T01:23:54.358Z,80.29
2022-11-16T01:26:22.635Z,80.36
2022-11-16T01:28:51.113Z,79.78
2022-11-16T01:31:19.507Z,79.41
2022-11-16T01:33:50.384Z,79.28
2022-11-16T01:36:24.937Z,79.03
2022-11-16T01:38:55.463Z,78.70
2022-11-16T01:41:28.844Z,78.55
2022-11-16T01:44:04.559Z,78.65
2022-11-16T01:46:38.936Z,78.57
2022-11-16T01:49:14.037Z,78.53
2022-11-16T01:51:48.828Z,78.83
2022-11-16T01:54:17.775Z,79.06
2022-11-16T01:57:04.119Z,79.10
2022-11-16T01:59:37.708Z,79.68
2022-11-16T02:02:07.915Z,79.41
2022-11-16T02:04:36.381Z,79.61
2022-11-16T02:07:17.076Z,78.98
2022-11-16T02:10:01.246Z,78.76
2022-11-16T02:12:50.943Z,78.77
2022-11-16T02:15:28.595Z,78.73
2022-11-16T02:18:18.574Z,78.92
2022-11-16T02:21:20.571Z,79.06
2022-11-16T02:24:12.937Z,79.79
2022-11-16T02:27:17.084Z,79.96
2022-11-16T02:29:51.229Z,80.25
2022-11-16T02:32:25.773Z,80.11
2022-11-16T02:34:58.625Z,80.37
2022-11-16T02:37:30.300Z,80.59
2022-11-16T02:40:02.506Z,80.33
2022-11-16T02:42:37.097Z,80.49
2022-11-16T02:45:13.581Z,80.30
2022-11-16T02:47:45.200Z,80.68
2022-11-16T02:50:18.056Z,80.62
2022-11-16T02:52:46.233Z,80.68
2022-11-16T02:55:15.373Z,80.55
2022-11-16T02:57:52.642Z,80.54
2022-11-16T03:00:28.492Z,80.86
2022-11-16T03:03:11.768Z,80.63
2022-11-16T03:05:46.149Z,80.76
2022-11-16T03:08:21.509Z,80.87
2022-11-16T03:11:12.566Z,80.79
2022-11-16T03:13:43.139Z,81.14
2022-11-16T03:16:17.128Z,80.82
2022-11-16T03:18:47.733Z,81.00
2022-11-16T03:21:24.294Z,80.19
2022-11-16T03:23:52.760Z,79.66
2022-11-16T03:26:25.651Z,79.62
2022-11-16T03:28:59.692Z,79.46
2022-11-16T03:31:32.538Z,79.16
2022-11-16T03:34:05.851Z,79.19
2022-11-16T03:36:37.207Z,78.78
2022-11-16T03:39:11.724Z,78.73
2022-11-16T03:41:43.396Z,77.85
2022-11-16T03:44:15.327Z,77.80
2022-11-16T03:46:46.730Z,77.32
2022-11-16T03:49:16.285Z,76.86
2022-11-16T03:51:44.776Z,76.90
2022-11-16T03:54:13.069Z,76.44
2022-11-16T03:56:41.807Z,76.08
2022-11-16T03:59:10.636Z,76.38
2022-11-16T04:01:43.373Z,75.94
2022-11-16T04:04:29.162Z,76.22
2022-11-16T04:07:16.048Z,76.18
2022-11-16T04:10:01.618Z,76.64
2022-11-16T04:12:47.682Z,76.59
2022-11-16T04:15:33.157Z,76.96
2022-11-16T04:18:19.726Z,77.38
2022-11-16T04:21:06.892Z,77.28
2022-11-16T04:23:52.892Z,77.09
2022-11-16T04:26:41.067Z,77.49
2022-11-16T04:29:08.254Z,77.92
2022-11-16T04:31:54.288Z,78.27
2022-11-16T04:34:40.209Z,78.39
2022-11-16T04:37:28.790Z,78.19
2022-11-16T04:39:57.019Z,78.25
2022-11-16T04:42:25.283Z,78.06
2022-11-16T04:45:10.701Z,77.93
2022-11-16T04:47:46.143Z,78.29
2022-11-16T04:50:14.322Z,78.13
2022-11-16T04:52:45.627Z,78.51
2022-11-16T04:55:16.041Z,78.31
2022-11-16T04:57:46.617Z,78.24
2022-11-16T05:00:15.984Z,78.06
2022-11-16T05:02:45.169Z,77.98
2022-11-16T05:05:13.809Z,77.68
2022-11-16T05:07:46.107Z,77.16
2022-11-16T05:10:20.940Z,77.24
2022-11-16T05:12:50.736Z,77.27
2022-11-16T05:15:19.985Z,77.66
2022-11-16T05:17:51.149Z,77.50
2022-11-16T05:20:42.029Z,77.74
2022-11-16T05:23:26.989Z,77.22
2022-11-16T05:25:57.358Z,77.22
2022-11-16T05:28:29.255Z,77.01
2022-11-16T05:30:58.641Z,77.52
2022-11-16T05:33:29.096Z,77.53
2022-11-16T05:35:57.323Z,77.84
2022-11-16T05:38:29.079Z,78.07
2022-11-16T05:40:59.871Z,78.29
2022-11-16T05:43:30.579Z,78.30
2022-11-16T05:46:14.657Z,78.17
2022-11-16T05:48:43.629Z,78.15
2022-11-16T05:51:12.141Z,78.31
2022-11-16T05:53:42.728Z,78.28
2022-11-16T05:56:14.715Z,78.11
2022-11-16T05:58:44.713Z,78.54
2022-11-16T06:01:13.525Z,78.72
2022-11-16T06:03:42.951Z,78.69
2022-11-16T06:06:11.632Z,78.67
2022-11-16T06:08:41.436Z,78.70
2022-11-16T06:11:14.745Z,78.86
2022-11-16T06:13:45.700Z,78.43
2022-11-16T06:16:14.637Z,78.65
2022-11-16T06:18:44.393Z,78.84
2022-11-16T06:21:17.585Z,79.14
2022-11-16T06:23:48.587Z,78.83
2022-11-16T06:26:17.608Z,79.23
2022-11-16T06:28:46.849Z,78.98
2022-11-16T06:31:15.562Z,79.02
2022-11-16T06:33:43.743Z,78.97
2022-11-16T06:36:20.328Z,79.29
2022-11-16T06:38:51.305Z,79.00
2022-11-16T06:41:21.020Z,78.82
2022-11-16T06:43:51.013Z,78.33
2022-11-16T06:46:22.368Z,78.06
2022-11-16T06:48:50.654Z,77.94
2022-11-16T06:51:19.578Z,77.77
2022-11-16T06:53:50.469Z,77.58
2022-11-16T06:56:19.656Z,77.32
2022-11-16T06:58:53.786Z,77.06
2022-11-16T07:01:24.656Z,76.74
2022-11-16T07:03:59.759Z,76.55
2022-11-16T07:06:29.197Z,76.44
2022-11-16T07:08:59.821Z,76.14
2022-11-16T07:11:31.859Z,76.15
2022-11-16T07:14:00.538Z,76.16
2022-11-16T07:16:30.441Z,76.04
2022-11-16T07:19:02.150Z,76.42
2022-11-16T07:21:32.492Z,76.24
2022-11-16T07:24:05.261Z,76.49
2022-11-16T07:26:34.345Z,76.76
2022-11-16T07:29:09.956Z,76.67
2022-11-16T07:31:42.161Z,77.37
2022-11-16T07:34:33.460Z,77.59
2022-11-16T07:37:08.178Z,77.14
2022-11-16T07:39:37.739Z,77.01
2022-11-16T07:42:11.834Z,76.25
2022-11-16T07:45:07.767Z,76.05
2022-11-16T07:47:41.090Z,75.71
2022-11-16T07:50:14.960Z,75.92
2022-11-16T07:52:46.476Z,75.83
2022-11-16T07:55:25.509Z,76.26
2022-11-16T07:57:54.119Z,76.45
2022-11-16T08:00:24.625Z,76.52
2022-11-16T08:03:00.442Z,77.12
2022-11-16T08:05:29.733Z,77.00
2022-11-16T08:07:57.846Z,76.85
2022-11-16T08:10:30.169Z,76.94
2022-11-16T08:13:00.125Z,76.91
2022-11-16T08:15:28.415Z,77.33
2022-11-16T08:17:58.673Z,77.06
2022-11-16T08:20:28.857Z,77.04
2022-11-16T08:23:00.998Z,77.22
2022-11-16T08:25:34.003Z,76.93
2022-11-16T08:28:02.809Z,76.72
2022-11-16T08:30:31.855Z,76.78
2022-11-16T08:33:01.414Z,76.76
2022-11-16T08:35:29.780Z,76.95
2022-11-16T08:37:58.589Z,76.79
2022-11-16T08:40:29.082Z,76.53
2022-11-16T08:42:59.583Z,76.36
2022-11-16T08:45:28.069Z,75.70
2022-11-16T08:48:03.554Z,75.72
2022-11-16T08:50:55.503Z,75.67
2022-11-16T08:53:22.665Z,75.56
2022-11-16T08:55:50.871Z,75.28
2022-11-16T08:58:20.716Z,75.27
2022-11-16T09:00:48.971Z,75.03
2022-11-16T09:03:17.107Z,74.79
2022-11-16T09:05:46.821Z,74.81
2022-11-16T09:08:14.978Z,74.77
2022-11-16T09:10:43.415Z,74.89
2022-11-16T09:13:11.612Z,74.67
2022-11-16T09:15:41.154Z,74.28
2022-11-16T09:18:09.233Z,74.32
2022-11-16T09:20:37.393Z,74.38
2022-11-16T09:23:05.565Z,74.68
2022-11-16T09:25:35.105Z,74.85
2022-11-16T09:28:03.238Z,74.85
2022-11-16T09:30:31.507Z,74.52
2022-11-16T09:33:01.156Z,75.01
2022-11-16T09:35:29.297Z,75.39
2022-11-16T09:37:57.396Z,75.21
2022-11-16T09:40:29.554Z,75.83
2022-11-16T09:43:07.500Z,75.75
2022-11-16T09:45:45.645Z,76.08
2022-11-16T09:48:17.521Z,76.15
2022-11-16T09:50:48.235Z,76.69
2022-11-16T09:53:31.744Z,77.22
2022-11-16T09:56:04.199Z,77.59
2022-11-16T09:58:40.066Z,77.78
2022-11-16T10:01:22.374Z,77.82
2022-11-16T10:03:56.969Z,78.18
2022-11-16T10:06:34.174Z,78.45
2022-11-16T10:09:02.420Z,78.87
2022-11-16T10:12:02.922Z,79.20
2022-11-16T10:15:01.594Z,79.40
2022-11-16T10:17:41.520Z,79.76
2022-11-16T10:20:30.880Z,79.80
2022-11-16T10:23:09.867Z,79.50
2022-11-16T10:25:44.138Z,79.53
2022-11-16T10:28:31.544Z,79.64
2022-11-16T10:31:08.324Z,79.65
2022-11-16T10:33:39.597Z,79.72
2022-11-16T10:36:14.128Z,79.58
2022-11-16T10:38:44.228Z,79.90
2022-11-16T10:41:20.509Z,80.09
2022-11-16T10:43:50.598Z,80.20
2022-11-16T10:46:25.073Z,80.17
2022-11-16T10:49:02.166Z,81.11
2022-11-16T10:51:35.494Z,81.09
2022-11-16T10:54:04.733Z,81.78
2022-11-16T10:56:37.528Z,82.37
2022-11-16T10:59:07.404Z,82.87
2022-11-16T11:01:38.826Z,83.58
2022-11-16T11:04:22.093Z,84.56
2022-11-16T11:06:53.396Z,84.71
2022-11-16T11:09:26.970Z,84.43
2022-11-16T11:12:21.793Z,85.18
2022-11-16T11:15:01.082Z,85.50
2022-11-16T11:17:30.254Z,85.88
2022-11-16T11:20:00.708Z,85.99
2022-11-16T11:22:31.720Z,85.86
2022-11-16T11:25:03.313Z,85.51
2022-11-16T11:27:35.139Z,85.40
2022-11-16T11:30:04.088Z,86.26
2022-11-16T11:32:41.567Z,85.91
2022-11-16T11:35:24.077Z,86.78
2022-11-16T11:37:56.591Z,87.56
2022-11-16T11:40:25.570Z,87.87
2022-11-16T11:42:57.376Z,88.80
2022-11-16T11:45:34.165Z,89.28
2022-11-16T11:48:04.283Z,88.88
2022-11-16T11:50:43.774Z,88.98
2022-11-16T11:53:25.267Z,88.91
2022-11-16T11:55:58.389Z,89.42
2022-11-16T11:58:31.533Z,89.83
2022-11-16T12:01:22.207Z,90.18
2022-11-16T12:04:45.332Z,89.88
2022-11-16T12:07:26.551Z,90.37
2022-11-16T12:10:02.085Z,90.71
2022-11-16T12:12:44.896Z,90.87
2022-11-16T12:15:33.256Z,91.17
2022-11-16T12:18:15.485Z,91.09
2022-11-16T12:20:52.212Z,91.22
2022-11-16T12:23:50.565Z,91.80
2022-11-16T12:26:30.449Z,91.80
2022-11-16T12:29:14.060Z,92.13
2022-11-16T12:32:03.191Z,92.67
2022-11-16T12:34:45.786Z,92.96
2022-11-16T12:37:19.612Z,92.94
2022-11-16T12:40:01.617Z,93.63
2022-11-16T12:42:43.029Z,93.35
2022-11-16T12:45:34.357Z,93.62
2022-11-16T12:48:30.288Z,93.17
2022-11-16T12:51:05.007Z,93.55
2022-11-16T12:54:14.452Z,94.20
2022-11-16T12:56:51.944Z,94.39
2022-11-16T12:59:34.735Z,93.44
2022-11-16T13:02:14.005Z,93.57
2022-11-16T13:04:46.453Z,93.67
2022-11-16T13:07:21.420Z,93.52
2022-11-16T13:09:54.254Z,93.84
2022-11-16T13:12:24.554Z,94.36
2022-11-16T13:14:57.334Z,95.24
2022-11-16T13:17:28.944Z,96.24
2022-11-16T13:20:17.666Z,96.97
2022-11-16T13:22:53.461Z,96.55
2022-11-16T13:25:28.697Z,96.22
2022-11-16T13:28:03.009Z,96.24
2022-11-16T13:30:40.124Z,95.94
2022-11-16T13:33:27.963Z,95.39
2022-11-16T13:35:56.371Z,95.39
2022-11-16T13:38:52.349Z,95.04
2022-11-16T13:41:33.218Z,94.83
2022-11-16T13:44:03.020Z,94.56
2022-11-16T13:46:55.743Z,94.57
2022-11-16T13:49:32.189Z,94.31
2022-11-16T13:52:22.099Z,94.27
2022-11-16T13:54:54.713Z,94.15
2022-11-16T13:57:27.175Z,94.22
2022-11-16T14:00:11.049Z,93.31
2022-11-16T14:02:42.601Z,93.14
2022-11-16T14:05:18.236Z,93.49
2022-11-16T14:07:49.885Z,93.22
2022-11-16T14:11:02.824Z,92.35
2022-11-16T14:13:42.341Z,92.25
2022-11-16T14:16:55.487Z,92.05
2022-11-16T14:19:55.799Z,91.93
2022-11-16T14:22:45.184Z,91.72
2022-11-16T14:25:35.128Z,91.54
2022-11-16T14:28:19.238Z,91.38
2022-11-16T14:30:58.040Z,90.79
2022-11-16T14:33:32.817Z,90.92
2022-11-16T14:36:04.543Z,90.53
2022-11-16T14:38:35.255Z,90.48
2022-11-16T14:41:06.277Z,90.09
2022-11-16T14:43:40.029Z,89.55
2022-11-16T14:46:15.919Z,89.11
2022-11-16T14:48:47.070Z,89.27
2022-11-16T14:51:21.774Z,89.10
2022-11-16T14:53:53.472Z,88.50
2022-11-16T14:56:22.903Z,88.29
2022-11-16T14:58:56.692Z,88.19
2022-11-16T15:01:29.313Z,88.06
2022-11-16T15:04:02.778Z,87.30
2022-11-16T15:06:43.836Z,87.04
2022-11-16T15:09:20.976Z,86.80
2022-11-16T15:12:08.528Z,86.41
2022-11-16T15:14:42.833Z,85.73
2022-11-16T15:17:18.208Z,85.67
2022-11-16T15:19:55.586Z,85.36
2022-11-16T15:22:28.014Z,85.10
2022-11-16T15:24:57.861Z,84.52
2022-11-16T15:27:36.652Z,83.83
2022-11-16T15:30:15.818Z,83.48
2022-11-16T15:32:45.243Z,83.43
2022-11-16T15:35:22.675Z,82.82
2022-11-16T15:38:03.776Z,82.49
2022-11-16T15:40:32.235Z,82.21
2022-11-16T15:43:02.417Z,80.83
2022-11-16T15:45:32.550Z,79.45
2022-11-16T15:48:03.468Z,78.51
2022-11-16T15:50:32.500Z,77.70
2022-11-16T15:53:02.120Z,77.90
2022-11-16T15:55:35.184Z,77.16
2022-11-16T15:58:06.901Z,77.72
2022-11-16T16:00:37.698Z,77.83
2022-11-16T16:03:16.172Z,78.21
2022-11-16T16:05:44.580Z,78.65
2022-11-16T16:08:36.330Z,78.76
2022-11-16T16:11:13.428Z,79.12
2022-11-16T16:13:43.713Z,79.05
2022-11-16T16:16:21.115Z,79.17
2022-11-16T16:18:49.838Z,79.30
2022-11-16T16:21:18.797Z,79.33
2022-11-16T16:23:51.064Z,79.54
2022-11-16T16:26:19.983Z,79.44
2022-11-16T16:28:48.647Z,78.87
2022-11-16T16:31:19.913Z,78.54
2022-11-16T16:33:48.137Z,78.54
2022-11-16T16:36:16.384Z,78.23
2022-11-16T16:38:45.873Z,78.25
2022-11-16T16:41:23.947Z,78.35
2022-11-16T16:43:52.663Z,77.89
2022-11-16T16:46:21.810Z,77.73
2022-11-16T16:48:51.885Z,77.76
2022-11-16T16:51:20.413Z,78.01
2022-11-16T16:53:49.114Z,77.56
2022-11-16T16:56:20.047Z,77.29
2022-11-16T16:58:50.142Z,77.35
2022-11-16T17:01:18.912Z,77.51
2022-11-16T17:03:47.458Z,77.59
2022-11-16T17:06:17.166Z,77.69
2022-11-16T17:08:45.370Z,77.61
2022-11-16T17:11:16.019Z,77.52
2022-11-16T17:13:45.745Z,77.84
2022-11-16T17:16:13.924Z,77.87
2022-11-16T17:18:42.493Z,78.20
2022-11-16T17:21:11.226Z,78.58
2022-11-16T17:23:39.724Z,79.83
2022-11-16T17:26:09.902Z,80.13
2022-11-16T17:28:38.464Z,80.19
2022-11-16T17:31:11.478Z,80.84
2022-11-16T17:33:41.363Z,80.97
2022-11-16T17:36:12.842Z,81.03
2022-11-16T17:38:41.898Z,81.07
2022-11-16T17:41:13.190Z,81.33
2022-11-16T17:43:43.167Z,80.99
2022-11-16T17:46:14.827Z,81.12
2022-11-16T17:48:45.259Z,81.01
2022-11-16T17:51:15.235Z,80.44
2022-11-16T17:53:44.391Z,80.32
2022-11-16T17:56:13.998Z,79.65
2022-11-16T17:58:42.815Z,79.22
2022-11-16T18:01:13.680Z,79.03
2022-11-16T18:03:41.988Z,79.11
2022-11-16T18:06:13.363Z,79.20
2022-11-16T18:08:43.684Z,78.97
2022-11-16T18:11:14.860Z,79.15
2022-11-16T18:13:44.742Z,79.84
2022-11-16T18:16:16.583Z,79.49
2022-11-16T18:18:45.992Z,80.14
2022-11-16T18:21:20.417Z,79.69
2022-11-16T18:23:50.708Z,79.74
2022-11-16T18:26:21.228Z,80.44
2022-11-16T18:28:49.667Z,81.23
2022-11-16T18:31:21.077Z,81.37
2022-11-16T18:33:50.286Z,82.36
2022-11-16T18:36:19.739Z,82.98
2022-11-16T18:38:48.768Z,82.87
2022-11-16T18:41:20.317Z,83.46
2022-11-16T18:43:51.414Z,83.64
2022-11-16T18:46:25.527Z,84.51
2022-11-16T18:48:57.925Z,84.93
2022-11-16T18:51:30.077Z,85.74
2022-11-16T18:54:01.178Z,86.10
2022-11-16T18:56:31.562Z,86.07
2022-11-16T18:59:02.264Z,86.66
2022-11-16T19:01:32.103Z,86.90
2022-11-16T19:04:00.479Z,87.19
2022-11-16T19:06:32.201Z,86.91
2022-11-16T19:09:00.826Z,87.07
2022-11-16T19:11:29.681Z,87.16
2022-11-16T19:14:01.007Z,86.67
2022-11-16T19:16:29.510Z,86.74
2022-11-16T19:19:01.394Z,86.95
2022-11-16T19:21:30.197Z,87.01
2022-11-16T19:23:59.081Z,86.89
2022-11-16T19:26:28.919Z,86.80
2022-11-16T19:28:57.710Z,86.70
2022-11-16T19:31:27.574Z,86.25
2022-11-16T19:33:56.444Z,86.11
2022-11-16T19:36:28.607Z,85.60
2022-11-16T19:38:57.366Z,84.77
2022-11-16T19:41:26.801Z,84.22
2022-11-16T19:43:57.370Z,83.98
2022-11-16T19:46:26.243Z,83.39
2022-11-16T19:48:54.703Z,83.58
2022-11-16T19:51:26.887Z,83.54
2022-11-16T19:53:55.585Z,83.70
2022-11-16T19:56:25.072Z,83.69
2022-11-16T19:58:53.559Z,83.75
2022-11-16T20:01:25.419Z,83.76
2022-11-16T20:03:55.291Z,83.59
2022-11-16T20:06:29.184Z,83.02
2022-11-16T20:09:01.077Z,82.88
2022-11-16T20:11:33.806Z,82.20
2022-11-16T20:14:04.013Z,82.05
2022-11-16T20:16:38.692Z,82.40
2022-11-16T20:19:08.656Z,82.06
2022-11-16T20:21:40.331Z,82.29
2022-11-16T20:24:11.683Z,82.42
2022-11-16T20:26:44.043Z,82.25
2022-11-16T20:29:14.362Z,82.36
2022-11-16T20:31:45.366Z,82.29
2022-11-16T20:34:18.571Z,82.01
2022-11-16T20:36:50.823Z,82.14
2022-11-16T20:39:21.168Z,82.04
2022-11-16T20:41:49.767Z,82.36
2022-11-16T20:44:22.275Z,82.40
2022-11-16T20:46:52.468Z,82.64
2022-11-16T20:49:21.291Z,82.85
2022-11-16T20:51:51.381Z,82.71
2022-11-16T20:54:19.653Z,83.35
2022-11-16T20:56:49.710Z,83.20
2022-11-16T20:59:17.984Z,83.42
2022-11-16T21:01:48.782Z,84.00
2022-11-16T21:04:17.336Z,83.79
2022-11-16T21:06:45.644Z,83.79
2022-11-16T21:09:22.497Z,83.63
2022-11-16T21:12:08.841Z,83.46
2022-11-16T21:14:37.403Z,83.09
2022-11-16T21:17:06.319Z,83.29
2022-11-16T21:19:34.474Z,82.92
2022-11-16T21:22:03.249Z,82.63
2022-11-16T21:24:34.857Z,82.53
2022-11-16T21:27:03.230Z,82.79
2022-11-16T21:29:32.646Z,82.77
2022-11-16T21:32:01.221Z,82.77
2022-11-16T21:34:32.709Z,82.96
2022-11-16T21:37:04.451Z,83.26
2022-11-16T21:39:34.006Z,82.93
2022-11-16T21:42:02.470Z,82.98
2022-11-16T21:44:41.960Z,83.09
2022-11-16T21:47:10.473Z,83.32
2022-11-16T21:49:54.206Z,83.31
2022-11-16T21:52:28.941Z,83.23
2022-11-16T21:55:01.636Z,83.32
2022-11-16T21:57:30.167Z,83.14
2022-11-16T22:00:01.061Z,82.83
2022-11-16T22:02:40.122Z,82.84
2022-11-16T22:05:27.252Z,82.80
2022-11-16T22:07:56.295Z,82.64
2022-11-16T22:10:26.463Z,82.54
2022-11-16T22:12:55.431Z,82.62
2022-11-16T22:15:24.473Z,82.53
2022-11-16T22:17:53.115Z,82.90
2022-11-16T22:20:21.828Z,82.55
2022-11-16T22:22:50.120Z,82.40
2022-11-16T22:25:18.695Z,82.28
2022-11-16T22:28:19.250Z,82.02
2022-11-16T22:30:38.112Z,82.19
2022-11-16T22:33:06.358Z,82.24
2022-11-16T22:35:34.696Z,82.62
2022-11-16T22:38:04.707Z,83.22
2022-11-16T22:40:33.380Z,82.80
2022-11-16T22:43:03.049Z,83.05
2022-11-16T22:45:33.694Z,82.85
2022-11-16T22:48:01.867Z,82.71
2022-11-16T22:50:30.224Z,82.66
2022-11-16T22:53:00.149Z,82.69
2022-11-16T22:55:28.316Z,82.84
2022-11-16T22:57:56.971Z,83.01
2022-11-16T23:00:26.612Z,82.89
2022-11-16T23:02:56.210Z,83.07
2022-11-16T23:05:24.673Z,82.97
2022-11-16T23:07:52.983Z,82.90
2022-11-16T23:10:21.430Z,82.76
2022-11-16T23:13:07.616Z,82.83
2022-11-16T23:15:52.232Z,82.54
2022-11-16T23:18:20.910Z,82.49
2022-11-16T23:21:07.801Z,82.42
2022-11-16T23:23:53.756Z,82.22
2022-11-16T23:26:42.586Z,82.27
2022-11-16T23:29:12.172Z,82.09
2022-11-16T23:31:42.173Z,81.99
2022-11-16T23:34:11.078Z,81.87
2022-11-16T23:36:39.351Z,81.83
2022-11-16T23:39:07.604Z,81.80
2022-11-16T23:41:53.428Z,81.60
2022-11-16T23:44:22.014Z,81.62
2022-11-16T23:46:51.876Z,81.77
2022-11-16T23:49:22.178Z,81.90
2022-11-16T23:51:51.050Z,82.00
2022-11-16T23:54:19.453Z,81.85
2022-11-16T23:56:48.327Z,82.04
2022-11-16T23:59:16.658Z,81.40
